createdAt,value
2019-04-09T00:02:14.010Z,89
2019-04-09T00:05:14.513Z,89
2019-04-09T00:08:14.116Z,89
2019-04-09T00:11:15.654Z,90
2019-04-09T00:14:14.298Z,90
2019-04-09T00:17:15.452Z,90
2019-04-09T00:23:14.479Z,90
2019-04-09T00:26:14.463Z,90
2019-04-09T00:29:14.983Z,90
2019-04-09T00:35:14.646Z,90
2019-04-09T00:38:14.722Z,90
2019-04-09T00:44:14.828Z,90
2019-04-09T00:50:14.932Z,90
2019-04-09T00:53:15.919Z,90
2019-04-09T00:56:16.099Z,90
2019-04-09T00:59:15.478Z,90
2019-04-09T01:02:15.417Z,90
2019-04-09T01:05:15.363Z,90
2019-04-09T01:08:15.460Z,90
2019-04-09T01:11:15.399Z,90
2019-04-09T01:14:15.666Z,91
2019-04-09T01:17:15.486Z,91
2019-04-09T01:20:15.720Z,91
2019-04-09T01:23:15.903Z,91
2019-04-09T01:26:15.709Z,91
2019-04-09T01:29:15.996Z,92
2019-04-09T01:32:15.764Z,92
2019-04-09T01:35:16.205Z,92
2019-04-09T01:38:16.070Z,92
2019-04-09T01:41:16.267Z,92
2019-04-09T01:44:16.122Z,92
2019-04-09T01:47:16.501Z,92
2019-04-09T01:50:17.109Z,92
2019-04-09T01:56:16.287Z,92
2019-04-09T02:02:17.259Z,92
2019-04-09T02:05:16.516Z,92
2019-04-09T02:08:16.481Z,92
2019-04-09T02:11:17.659Z,92
2019-04-09T02:14:16.580Z,92
2019-04-09T02:26:17.970Z,92
2019-04-09T02:35:17.003Z,92
2019-04-09T02:38:17.052Z,92
2019-04-09T02:44:17.337Z,91
2019-04-09T02:53:17.381Z,92
2019-04-09T02:56:18.323Z,92
2019-04-09T02:59:18.141Z,92
2019-04-09T03:02:17.574Z,92
2019-04-09T03:05:18.253Z,92
2019-04-09T03:08:17.768Z,92
2019-04-09T03:11:17.706Z,92
2019-04-09T03:17:17.843Z,93
2019-04-09T03:23:18.599Z,93
2019-04-09T03:26:17.994Z,93
2019-04-09T03:29:18.242Z,93
2019-04-09T03:32:19.689Z,93
2019-04-09T03:35:18.287Z,93
2019-04-09T03:38:18.389Z,93
2019-04-09T03:41:18.629Z,94
2019-04-09T03:50:19.275Z,94
2019-04-09T03:53:18.684Z,94
2019-04-09T03:56:18.581Z,94
2019-04-09T03:59:18.678Z,94
2019-04-09T04:02:18.666Z,94
2019-04-09T04:05:18.872Z,93
2019-04-09T04:08:18.827Z,94
2019-04-09T04:11:19.116Z,94
2019-04-09T04:14:18.927Z,94
2019-04-09T04:17:19.997Z,94
2019-04-09T04:20:19.153Z,94
2019-04-09T04:23:19.098Z,94
2019-04-09T04:26:20.185Z,94
2019-04-09T04:29:19.307Z,94
2019-04-09T04:32:19.486Z,95
2019-04-09T04:35:20.133Z,95
2019-04-09T04:38:19.385Z,95
2019-04-09T04:41:21.139Z,95
2019-04-09T04:44:20.028Z,95
2019-04-09T04:47:19.711Z,95
2019-04-09T04:50:19.638Z,95
2019-04-09T04:53:19.655Z,95
2019-04-09T04:56:19.727Z,95
2019-04-09T04:59:20.098Z,95
2019-04-09T05:02:19.839Z,94
2019-04-09T05:05:20.026Z,94
2019-04-09T05:08:19.959Z,94
2019-04-09T05:23:21.200Z,93
2019-04-09T05:26:20.337Z,93
2019-04-09T05:29:20.382Z,92
2019-04-09T05:32:21.351Z,92
2019-04-09T08:28:57.155Z,83
2019-04-09T08:32:09.072Z,82
2019-04-09T08:35:01.152Z,82
2019-04-09T08:37:59.686Z,80
2019-04-09T08:40:57.434Z,78
2019-04-09T08:44:01.573Z,75
2019-04-09T08:47:00.537Z,76
2019-04-09T08:49:58.678Z,75
2019-04-09T08:52:58.215Z,76
2019-04-09T08:56:02.155Z,77
2019-04-09T08:58:58.705Z,78
2019-04-09T09:02:13.634Z,77
2019-04-09T09:05:06.609Z,76
2019-04-09T09:08:01.684Z,76
2019-04-09T09:10:58.116Z,77
2019-04-09T09:13:58.443Z,78
2019-04-09T09:16:59.993Z,77
2019-04-09T09:20:02.007Z,78
2019-04-09T09:22:59.424Z,78
2019-04-09T09:25:59.456Z,77
2019-04-09T09:28:59.641Z,78
2019-04-09T09:32:01.200Z,77
2019-04-09T09:35:01.441Z,77
2019-04-09T09:37:59.827Z,77
2019-04-09T09:41:02.666Z,78
2019-04-09T09:43:58.910Z,76
2019-04-09T09:46:58.917Z,75
2019-04-09T09:50:02.091Z,75
2019-04-09T09:53:01.617Z,74
2019-04-09T09:56:00.772Z,72
2019-04-09T09:58:59.237Z,67
2019-04-09T10:02:03.167Z,68
2019-04-09T10:04:59.522Z,67
2019-04-09T10:08:03.249Z,69
2019-04-09T10:11:01.319Z,69
2019-04-09T10:13:59.909Z,71
2019-04-09T10:17:00.064Z,73
2019-04-09T10:20:00.241Z,74
2019-04-09T10:23:01.022Z,76
2019-04-09T10:26:05.060Z,76
2019-04-09T10:29:02.027Z,77
2019-04-09T10:32:00.763Z,77
2019-04-09T10:35:04.324Z,76
2019-04-09T10:38:01.174Z,76
2019-04-09T10:41:00.233Z,76
2019-04-09T10:44:01.503Z,77
2019-04-09T10:47:05.921Z,77
2019-04-09T10:50:01.790Z,78
2019-04-09T10:53:00.809Z,78
2019-04-09T10:56:01.437Z,78
2019-04-09T10:59:00.663Z,78
2019-04-09T11:02:00.752Z,78
2019-04-09T11:05:02.136Z,78
2019-04-09T11:08:03.327Z,77
2019-04-09T11:11:01.043Z,78
2019-04-09T11:14:06.626Z,78
2019-04-09T11:17:04.340Z,77
2019-04-09T11:20:01.880Z,78
2019-04-09T11:23:01.301Z,78
2019-04-09T11:26:02.088Z,78
2019-04-09T11:29:01.340Z,79
2019-04-09T11:32:06.956Z,80
2019-04-09T11:35:01.473Z,79
2019-04-09T11:38:01.525Z,80
2019-04-09T11:50:01.863Z,81
2019-04-09T11:53:01.942Z,81
2019-04-09T11:56:01.972Z,82
2019-04-09T11:59:02.720Z,83
2019-04-09T12:02:05.766Z,83
2019-04-09T12:05:02.697Z,84
2019-04-09T12:08:02.418Z,84
2019-04-09T12:11:02.812Z,85
2019-04-09T12:14:02.631Z,85
2019-04-09T12:17:02.411Z,87
2019-04-09T12:20:09.458Z,87
2019-04-09T12:23:02.527Z,87
2019-04-09T12:26:02.598Z,86
2019-04-09T12:29:09.511Z,87
2019-04-09T12:32:14.552Z,86
2019-04-09T12:35:05.002Z,85
2019-04-09T12:38:04.116Z,85
2019-04-09T12:41:03.575Z,82
2019-04-09T12:44:03.767Z,79
2019-04-09T12:47:04.302Z,76
2019-04-09T12:50:03.154Z,74
2019-04-09T12:53:03.240Z,75
2019-04-09T12:56:03.310Z,76
2019-04-09T12:59:04.617Z,76
2019-04-09T13:02:03.577Z,78
2019-04-09T13:05:03.948Z,79
2019-04-09T13:08:03.569Z,79
2019-04-09T13:11:04.506Z,78
2019-04-09T13:14:04.162Z,77
2019-04-09T13:17:03.796Z,77
2019-04-09T13:20:04.146Z,77
2019-04-09T13:23:04.214Z,77
2019-04-09T13:26:07.722Z,77
2019-04-09T13:29:04.961Z,76
2019-04-09T13:32:04.695Z,74
2019-04-09T13:35:04.224Z,74
2019-04-09T13:38:04.948Z,74
2019-04-09T13:41:05.408Z,75
2019-04-09T13:44:05.037Z,74
2019-04-09T13:47:05.483Z,74
2019-04-09T13:50:04.615Z,71
2019-04-09T13:53:04.674Z,71
2019-04-09T13:56:05.066Z,69
2019-04-09T13:59:04.817Z,64
2019-04-09T14:02:05.232Z,61
2019-04-09T14:05:06.871Z,60
2019-04-09T14:08:05.079Z,62
2019-04-09T14:11:06.108Z,64
2019-04-09T14:14:05.233Z,65
2019-04-09T14:17:05.323Z,65
2019-04-09T14:20:05.683Z,67
2019-04-09T14:23:05.783Z,67
2019-04-09T14:26:05.717Z,67
2019-04-09T14:29:05.708Z,68
2019-04-09T14:32:05.773Z,68
2019-04-09T14:35:05.925Z,68
2019-04-09T14:38:05.919Z,67
2019-04-09T14:41:06.124Z,66
2019-04-09T14:44:05.980Z,66
2019-04-09T14:47:06.301Z,67
2019-04-09T14:50:07.282Z,68
2019-04-09T14:53:06.212Z,70
2019-04-09T14:56:06.272Z,72
2019-04-09T14:59:06.354Z,73
2019-04-09T15:02:07.317Z,73
2019-04-09T15:05:07.535Z,73
2019-04-09T15:08:06.612Z,74
2019-04-09T15:11:07.130Z,76
2019-04-09T15:14:07.391Z,76
2019-04-09T15:17:07.601Z,76
2019-04-09T15:20:06.863Z,76
2019-04-09T15:23:07.579Z,76
2019-04-09T15:26:07.528Z,78
2019-04-09T15:29:07.045Z,78
2019-04-09T15:32:07.102Z,78
2019-04-09T15:50:08.285Z,80
2019-04-09T15:53:07.595Z,80
2019-04-09T15:56:08.559Z,80
2019-04-09T15:59:08.902Z,80
2019-04-09T16:02:07.958Z,80
2019-04-09T16:05:08.717Z,80
2019-04-09T16:08:08.029Z,80
2019-04-09T16:11:08.439Z,80
2019-04-09T16:14:08.270Z,81
2019-04-09T16:17:08.739Z,81
2019-04-09T16:20:08.564Z,80
2019-04-09T16:44:09.485Z,83
2019-04-09T16:47:09.482Z,83
2019-04-09T16:50:08.911Z,83
2019-04-09T16:53:09.168Z,82
2019-04-09T16:56:09.579Z,83
2019-04-09T16:59:10.038Z,83
2019-04-09T17:08:09.412Z,84
2019-04-09T17:11:10.202Z,84
2019-04-09T17:14:09.452Z,85
2019-04-09T17:17:09.407Z,85
2019-04-09T17:20:10.260Z,86
2019-04-09T17:23:09.530Z,86
2019-04-09T17:26:09.639Z,86
2019-04-09T17:29:10.837Z,86
2019-04-09T17:32:10.229Z,86
2019-04-09T17:35:09.777Z,87
2019-04-09T17:38:09.845Z,87
2019-04-09T17:41:09.912Z,87
2019-04-09T17:44:10.971Z,87
2019-04-09T17:47:10.035Z,87
2019-04-09T17:50:10.103Z,87
2019-04-09T17:53:10.694Z,87
2019-04-09T17:56:10.292Z,87
2019-04-09T17:59:11.082Z,87
2019-04-09T18:02:10.347Z,87
2019-04-09T18:05:10.664Z,87
2019-04-09T18:08:10.487Z,88
2019-04-09T18:11:10.529Z,88
2019-04-09T18:14:10.636Z,88
2019-04-09T18:17:11.235Z,88
2019-04-09T18:20:11.928Z,88
2019-04-09T18:23:11.810Z,88
2019-04-09T18:26:10.859Z,88
2019-04-09T18:29:11.266Z,88
2019-04-09T18:32:11.694Z,88
2019-04-09T18:35:11.496Z,88
2019-04-09T18:38:11.102Z,88
2019-04-09T18:41:12.324Z,88
2019-04-09T18:44:12.017Z,88
2019-04-09T18:47:11.663Z,88
2019-04-09T18:50:11.352Z,89
2019-04-09T18:56:11.474Z,89
2019-04-09T19:02:12.500Z,89
